sensor_id;sensor_type;location;lat;lon;timestamp;P1;durP1;ratioP1;P2;durP2;ratioP2
77174;SDS011;66153;53.488;10.244;2023-01-09T00:01:00;4.03;;;2.40;;
77174;SDS011;66153;53.488;10.244;2023-01-09T00:03:26;5.35;;;2.75;;
77174;SDS011;66153;53.488;10.244;2023-01-09T00:05:51;4.17;;;2.73;;
77174;SDS011;66153;53.488;10.244;2023-01-09T00:08:16;4.83;;;2.50;;
77174;SDS011;66153;53.488;10.244;2023-01-09T00:10:42;6.05;;;3.05;;
77174;SDS011;66153;53.488;10.244;2023-01-09T00:13:09;4.43;;;3.00;;
77174;SDS011;66153;53.488;10.244;2023-01-09T00:15:35;3.55;;;2.47;;
77174;SDS011;66153;53.488;10.244;2023-01-09T00:18:00;3.83;;;2.70;;
77174;SDS011;66153;53.488;10.244;2023-01-09T00:20:25;5.40;;;2.77;;
77174;SDS011;66153;53.488;10.244;2023-01-09T00:22:51;5.43;;;2.63;;
77174;SDS011;66153;53.488;10.244;2023-01-09T00:25:16;3.87;;;2.37;;
77174;SDS011;66153;53.488;10.244;2023-01-09T00:27:41;4.33;;;2.37;;
77174;SDS011;66153;53.488;10.244;2023-01-09T00:30:09;5.20;;;2.80;;
77174;SDS011;66153;53.488;10.244;2023-01-09T00:32:37;3.92;;;2.65;;
77174;SDS011;66153;53.488;10.244;2023-01-09T00:35:03;4.20;;;2.43;;
77174;SDS011;66153;53.488;10.244;2023-01-09T00:37:28;5.78;;;2.97;;
77174;SDS011;66153;53.488;10.244;2023-01-09T00:39:53;4.43;;;2.40;;
77174;SDS011;66153;53.488;10.244;2023-01-09T00:42:19;4.50;;;3.30;;
77174;SDS011;66153;53.488;10.244;2023-01-09T00:44:46;4.57;;;2.85;;
77174;SDS011;66153;53.488;10.244;2023-01-09T00:47:15;5.22;;;2.75;;
77174;SDS011;66153;53.488;10.244;2023-01-09T00:49:42;4.20;;;2.80;;
77174;SDS011;66153;53.488;10.244;2023-01-09T00:52:08;3.33;;;2.67;;
77174;SDS011;66153;53.488;10.244;2023-01-09T00:54:33;4.55;;;3.03;;
77174;SDS011;66153;53.488;10.244;2023-01-09T00:56:59;4.35;;;2.90;;
77174;SDS011;66153;53.488;10.244;2023-01-09T00:59:25;4.00;;;2.17;;
77174;SDS011;66153;53.488;10.244;2023-01-09T01:01:50;4.05;;;3.03;;
77174;SDS011;66153;53.488;10.244;2023-01-09T01:04:16;3.63;;;2.87;;
77174;SDS011;66153;53.488;10.244;2023-01-09T01:07:00;3.50;;;2.55;;
77174;SDS011;66153;53.488;10.244;2023-01-09T01:09:44;5.55;;;2.95;;
77174;SDS011;66153;53.488;10.244;2023-01-09T01:12:09;3.67;;;2.63;;
77174;SDS011;66153;53.488;10.244;2023-01-09T01:14:35;5.28;;;2.97;;
77174;SDS011;66153;53.488;10.244;2023-01-09T01:17:00;5.63;;;2.13;;
77174;SDS011;66153;53.488;10.244;2023-01-09T01:19:26;3.90;;;2.90;;
77174;SDS011;66153;53.488;10.244;2023-01-09T01:21:51;4.97;;;2.77;;
77174;SDS011;66153;53.488;10.244;2023-01-09T01:24:16;5.87;;;3.00;;
77174;SDS011;66153;53.488;10.244;2023-01-09T01:26:45;5.03;;;2.92;;
77174;SDS011;66153;53.488;10.244;2023-01-09T01:29:10;4.25;;;3.20;;
77174;SDS011;66153;53.488;10.244;2023-01-09T01:31:35;5.50;;;3.00;;
77174;SDS011;66153;53.488;10.244;2023-01-09T01:34:01;4.63;;;2.42;;
77174;SDS011;66153;53.488;10.244;2023-01-09T01:36:26;5.13;;;2.80;;
77174;SDS011;66153;53.488;10.244;2023-01-09T01:38:51;6.63;;;3.07;;
77174;SDS011;66153;53.488;10.244;2023-01-09T01:41:17;5.45;;;2.80;;
77174;SDS011;66153;53.488;10.244;2023-01-09T01:44:00;3.83;;;2.67;;
77174;SDS011;66153;53.488;10.244;2023-01-09T01:46:26;3.92;;;2.85;;
77174;SDS011;66153;53.488;10.244;2023-01-09T01:48:56;4.93;;;2.78;;
77174;SDS011;66153;53.488;10.244;2023-01-09T01:51:23;4.38;;;3.20;;
77174;SDS011;66153;53.488;10.244;2023-01-09T01:53:50;4.53;;;2.53;;
77174;SDS011;66153;53.488;10.244;2023-01-09T01:58:50;4.57;;;2.50;;
77174;SDS011;66153;53.488;10.244;2023-01-09T02:01:17;4.82;;;3.10;;
77174;SDS011;66153;53.488;10.244;2023-01-09T02:03:43;7.03;;;2.85;;
77174;SDS011;66153;53.488;10.244;2023-01-09T02:06:09;4.38;;;2.67;;
77174;SDS011;66153;53.488;10.244;2023-01-09T02:08:35;4.65;;;2.78;;
77174;SDS011;66153;53.488;10.244;2023-01-09T02:11:01;4.45;;;2.85;;
77174;SDS011;66153;53.488;10.244;2023-01-09T02:13:26;4.90;;;2.90;;
77174;SDS011;66153;53.488;10.244;2023-01-09T02:28:52;5.13;;;2.50;;
77174;SDS011;66153;53.488;10.244;2023-01-09T02:31:39;5.35;;;2.55;;
77174;SDS011;66153;53.488;10.244;2023-01-09T02:34:22;9.07;;;3.50;;
77174;SDS011;66153;53.488;10.244;2023-01-09T02:44:39;4.60;;;2.60;;
77174;SDS011;66153;53.488;10.244;2023-01-09T02:49:45;4.97;;;3.55;;
77174;SDS011;66153;53.488;10.244;2023-01-09T02:52:15;5.97;;;3.15;;
77174;SDS011;66153;53.488;10.244;2023-01-09T02:54:57;5.60;;;2.97;;
77174;SDS011;66153;53.488;10.244;2023-01-09T03:00:10;5.50;;;3.40;;
77174;SDS011;66153;53.488;10.244;2023-01-09T03:02:50;5.50;;;3.00;;
77174;SDS011;66153;53.488;10.244;2023-01-09T03:05:24;3.65;;;3.05;;
77174;SDS011;66153;53.488;10.244;2023-01-09T03:07:55;5.57;;;2.88;;
77174;SDS011;66153;53.488;10.244;2023-01-09T03:12:49;4.03;;;3.10;;
77174;SDS011;66153;53.488;10.244;2023-01-09T03:15:16;3.70;;;2.83;;
77174;SDS011;66153;53.488;10.244;2023-01-09T03:17:42;3.67;;;2.80;;
77174;SDS011;66153;53.488;10.244;2023-01-09T03:20:09;6.13;;;2.95;;
77174;SDS011;66153;53.488;10.244;2023-01-09T03:22:37;4.95;;;2.80;;
77174;SDS011;66153;53.488;10.244;2023-01-09T03:25:03;4.18;;;2.53;;
77174;SDS011;66153;53.488;10.244;2023-01-09T03:27:28;3.97;;;2.80;;
77174;SDS011;66153;53.488;10.244;2023-01-09T03:29:53;4.43;;;3.10;;
77174;SDS011;66153;53.488;10.244;2023-01-09T03:32:20;2.92;;;2.30;;
77174;SDS011;66153;53.488;10.244;2023-01-09T03:34:45;4.40;;;2.33;;
77174;SDS011;66153;53.488;10.244;2023-01-09T03:37:10;4.63;;;2.57;;
77174;SDS011;66153;53.488;10.244;2023-01-09T03:39:36;4.40;;;2.80;;
77174;SDS011;66153;53.488;10.244;2023-01-09T03:42:01;3.80;;;2.73;;
77174;SDS011;66153;53.488;10.244;2023-01-09T03:44:27;4.25;;;3.25;;
77174;SDS011;66153;53.488;10.244;2023-01-09T03:46:52;4.23;;;3.20;;
77174;SDS011;66153;53.488;10.244;2023-01-09T03:49:17;5.63;;;2.87;;
77174;SDS011;66153;53.488;10.244;2023-01-09T03:51:43;4.40;;;2.40;;
77174;SDS011;66153;53.488;10.244;2023-01-09T03:54:08;3.60;;;2.50;;
77174;SDS011;66153;53.488;10.244;2023-01-09T03:56:33;4.60;;;2.53;;
77174;SDS011;66153;53.488;10.244;2023-01-09T03:58:58;5.10;;;2.47;;
77174;SDS011;66153;53.488;10.244;2023-01-09T04:01:24;3.70;;;2.73;;
77174;SDS011;66153;53.488;10.244;2023-01-09T04:03:49;3.67;;;2.50;;
77174;SDS011;66153;53.488;10.244;2023-01-09T04:06:14;4.03;;;2.63;;
77174;SDS011;66153;53.488;10.244;2023-01-09T04:08:39;4.40;;;3.10;;
77174;SDS011;66153;53.488;10.244;2023-01-09T04:11:04;4.83;;;2.70;;
77174;SDS011;66153;53.488;10.244;2023-01-09T04:13:30;3.53;;;2.47;;
77174;SDS011;66153;53.488;10.244;2023-01-09T04:15:55;5.07;;;2.83;;
77174;SDS011;66153;53.488;10.244;2023-01-09T04:18:20;5.17;;;2.20;;
77174;SDS011;66153;53.488;10.244;2023-01-09T04:20:46;4.90;;;2.97;;
77174;SDS011;66153;53.488;10.244;2023-01-09T04:23:11;5.80;;;3.30;;
77174;SDS011;66153;53.488;10.244;2023-01-09T04:25:36;5.30;;;3.00;;
77174;SDS011;66153;53.488;10.244;2023-01-09T04:28:02;6.53;;;3.27;;
77174;SDS011;66153;53.488;10.244;2023-01-09T04:30:27;5.20;;;3.37;;
77174;SDS011;66153;53.488;10.244;2023-01-09T04:32:52;4.03;;;2.57;;
77174;SDS011;66153;53.488;10.244;2023-01-09T04:35:18;5.67;;;3.73;;
77174;SDS011;66153;53.488;10.244;2023-01-09T04:37:43;6.95;;;3.38;;
77174;SDS011;66153;53.488;10.244;2023-01-09T04:40:08;4.97;;;2.60;;
77174;SDS011;66153;53.488;10.244;2023-01-09T04:42:35;6.78;;;3.67;;
77174;SDS011;66153;53.488;10.244;2023-01-09T04:45:00;5.60;;;3.00;;
77174;SDS011;66153;53.488;10.244;2023-01-09T04:47:25;7.37;;;2.90;;
77174;SDS011;66153;53.488;10.244;2023-01-09T04:49:50;5.67;;;2.43;;
77174;SDS011;66153;53.488;10.244;2023-01-09T04:52:16;4.97;;;2.65;;
77174;SDS011;66153;53.488;10.244;2023-01-09T04:54:41;6.93;;;3.37;;
77174;SDS011;66153;53.488;10.244;2023-01-09T04:57:06;5.10;;;3.07;;
77174;SDS011;66153;53.488;10.244;2023-01-09T04:59:31;5.63;;;2.97;;
77174;SDS011;66153;53.488;10.244;2023-01-09T05:01:56;5.30;;;3.57;;
77174;SDS011;66153;53.488;10.244;2023-01-09T05:04:23;6.63;;;4.00;;
77174;SDS011;66153;53.488;10.244;2023-01-09T05:06:48;6.45;;;3.35;;
77174;SDS011;66153;53.488;10.244;2023-01-09T05:09:14;5.60;;;3.13;;
77174;SDS011;66153;53.488;10.244;2023-01-09T05:11:39;7.20;;;3.83;;
77174;SDS011;66153;53.488;10.244;2023-01-09T05:14:04;4.83;;;3.07;;
77174;SDS011;66153;53.488;10.244;2023-01-09T05:16:29;8.00;;;3.97;;
77174;SDS011;66153;53.488;10.244;2023-01-09T05:18:55;9.85;;;4.47;;
77174;SDS011;66153;53.488;10.244;2023-01-09T05:21:22;7.00;;;3.47;;
77174;SDS011;66153;53.488;10.244;2023-01-09T05:23:47;8.00;;;4.13;;
77174;SDS011;66153;53.488;10.244;2023-01-09T05:26:12;5.73;;;3.40;;
77174;SDS011;66153;53.488;10.244;2023-01-09T05:28:37;5.63;;;3.53;;
77174;SDS011;66153;53.488;10.244;2023-01-09T05:31:03;6.03;;;2.88;;
77174;SDS011;66153;53.488;10.244;2023-01-09T05:33:28;4.17;;;2.77;;
77174;SDS011;66153;53.488;10.244;2023-01-09T05:35:53;4.20;;;2.60;;
77174;SDS011;66153;53.488;10.244;2023-01-09T05:38:18;6.57;;;2.90;;
77174;SDS011;66153;53.488;10.244;2023-01-09T05:40:44;3.87;;;2.50;;
77174;SDS011;66153;53.488;10.244;2023-01-09T05:43:09;3.70;;;2.43;;
77174;SDS011;66153;53.488;10.244;2023-01-09T05:45:34;5.90;;;2.60;;
77174;SDS011;66153;53.488;10.244;2023-01-09T05:47:59;4.67;;;2.33;;
77174;SDS011;66153;53.488;10.244;2023-01-09T05:50:25;4.03;;;2.43;;
77174;SDS011;66153;53.488;10.244;2023-01-09T05:52:51;6.20;;;2.58;;
77174;SDS011;66153;53.488;10.244;2023-01-09T05:55:16;5.60;;;2.57;;
77174;SDS011;66153;53.488;10.244;2023-01-09T05:57:41;4.32;;;2.33;;
77174;SDS011;66153;53.488;10.244;2023-01-09T06:00:06;5.17;;;2.50;;
77174;SDS011;66153;53.488;10.244;2023-01-09T06:02:32;3.67;;;2.22;;
77174;SDS011;66153;53.488;10.244;2023-01-09T06:04:57;6.57;;;3.17;;
77174;SDS011;66153;53.488;10.244;2023-01-09T06:07:22;4.30;;;2.67;;
77174;SDS011;66153;53.488;10.244;2023-01-09T06:09:47;4.20;;;2.10;;
77174;SDS011;66153;53.488;10.244;2023-01-09T06:12:13;4.43;;;2.40;;
77174;SDS011;66153;53.488;10.244;2023-01-09T06:14:38;5.63;;;2.50;;
77174;SDS011;66153;53.488;10.244;2023-01-09T06:17:03;5.27;;;2.50;;
77174;SDS011;66153;53.488;10.244;2023-01-09T06:19:28;5.03;;;2.70;;
77174;SDS011;66153;53.488;10.244;2023-01-09T06:21:54;7.18;;;3.03;;
77174;SDS011;66153;53.488;10.244;2023-01-09T06:24:19;4.93;;;2.70;;
77174;SDS011;66153;53.488;10.244;2023-01-09T06:26:44;4.43;;;2.63;;
77174;SDS011;66153;53.488;10.244;2023-01-09T06:29:09;4.57;;;2.50;;
77174;SDS011;66153;53.488;10.244;2023-01-09T06:31:34;5.67;;;3.07;;
77174;SDS011;66153;53.488;10.244;2023-01-09T06:34:00;6.83;;;2.30;;
77174;SDS011;66153;53.488;10.244;2023-01-09T06:36:25;5.17;;;2.47;;
77174;SDS011;66153;53.488;10.244;2023-01-09T06:38:50;6.33;;;2.90;;
77174;SDS011;66153;53.488;10.244;2023-01-09T06:41:15;5.30;;;2.40;;
77174;SDS011;66153;53.488;10.244;2023-01-09T06:43:41;6.18;;;2.65;;
77174;SDS011;66153;53.488;10.244;2023-01-09T06:46:06;5.03;;;2.53;;
77174;SDS011;66153;53.488;10.244;2023-01-09T06:48:31;6.00;;;2.20;;
77174;SDS011;66153;53.488;10.244;2023-01-09T06:50:56;3.40;;;2.08;;
77174;SDS011;66153;53.488;10.244;2023-01-09T06:53:22;3.97;;;2.40;;
77174;SDS011;66153;53.488;10.244;2023-01-09T06:55:47;3.83;;;2.38;;
77174;SDS011;66153;53.488;10.244;2023-01-09T06:58:12;3.10;;;2.03;;
77174;SDS011;66153;53.488;10.244;2023-01-09T07:00:38;3.80;;;2.20;;
77174;SDS011;66153;53.488;10.244;2023-01-09T07:03:03;3.53;;;2.60;;
77174;SDS011;66153;53.488;10.244;2023-01-09T07:05:29;3.50;;;1.98;;
77174;SDS011;66153;53.488;10.244;2023-01-09T07:07:54;4.35;;;2.03;;
77174;SDS011;66153;53.488;10.244;2023-01-09T07:10:21;3.67;;;2.15;;
77174;SDS011;66153;53.488;10.244;2023-01-09T07:12:46;2.95;;;2.05;;
77174;SDS011;66153;53.488;10.244;2023-01-09T07:15:11;3.83;;;2.10;;
77174;SDS011;66153;53.488;10.244;2023-01-09T07:17:36;2.60;;;2.00;;
77174;SDS011;66153;53.488;10.244;2023-01-09T07:20:02;3.13;;;1.73;;
77174;SDS011;66153;53.488;10.244;2023-01-09T07:22:27;2.65;;;1.58;;
77174;SDS011;66153;53.488;10.244;2023-01-09T07:24:52;4.47;;;1.87;;
77174;SDS011;66153;53.488;10.244;2023-01-09T07:27:18;3.20;;;2.07;;
77174;SDS011;66153;53.488;10.244;2023-01-09T07:29:43;3.75;;;1.90;;
77174;SDS011;66153;53.488;10.244;2023-01-09T07:32:08;2.77;;;1.87;;
77174;SDS011;66153;53.488;10.244;2023-01-09T07:34:33;3.03;;;1.90;;
77174;SDS011;66153;53.488;10.244;2023-01-09T07:36:58;3.17;;;1.83;;
77174;SDS011;66153;53.488;10.244;2023-01-09T07:39:24;3.43;;;1.80;;
77174;SDS011;66153;53.488;10.244;2023-01-09T07:41:49;2.77;;;1.87;;
77174;SDS011;66153;53.488;10.244;2023-01-09T07:44:14;4.53;;;2.07;;
77174;SDS011;66153;53.488;10.244;2023-01-09T07:46:39;3.90;;;2.30;;
77174;SDS011;66153;53.488;10.244;2023-01-09T07:49:04;3.87;;;2.17;;
77174;SDS011;66153;53.488;10.244;2023-01-09T07:51:30;4.30;;;2.72;;
77174;SDS011;66153;53.488;10.244;2023-01-09T07:53:55;3.50;;;2.57;;
77174;SDS011;66153;53.488;10.244;2023-01-09T07:56:20;4.20;;;2.50;;
77174;SDS011;66153;53.488;10.244;2023-01-09T07:58:45;5.20;;;2.70;;
77174;SDS011;66153;53.488;10.244;2023-01-09T08:01:11;5.30;;;3.03;;
77174;SDS011;66153;53.488;10.244;2023-01-09T08:03:36;6.03;;;2.97;;
77174;SDS011;66153;53.488;10.244;2023-01-09T08:06:02;4.65;;;2.53;;
77174;SDS011;66153;53.488;10.244;2023-01-09T08:08:27;5.30;;;3.30;;
77174;SDS011;66153;53.488;10.244;2023-01-09T08:10:52;7.27;;;3.10;;
77174;SDS011;66153;53.488;10.244;2023-01-09T08:13:18;5.70;;;3.43;;
77174;SDS011;66153;53.488;10.244;2023-01-09T08:15:43;5.27;;;3.23;;
77174;SDS011;66153;53.488;10.244;2023-01-09T08:18:08;5.33;;;3.20;;
77174;SDS011;66153;53.488;10.244;2023-01-09T08:20:33;5.10;;;3.40;;
77174;SDS011;66153;53.488;10.244;2023-01-09T08:22:58;7.93;;;3.33;;
77174;SDS011;66153;53.488;10.244;2023-01-09T08:25:24;5.40;;;3.57;;
77174;SDS011;66153;53.488;10.244;2023-01-09T08:27:49;6.90;;;3.60;;
77174;SDS011;66153;53.488;10.244;2023-01-09T08:30:15;6.67;;;3.60;;
77174;SDS011;66153;53.488;10.244;2023-01-09T08:32:40;6.00;;;3.53;;
77174;SDS011;66153;53.488;10.244;2023-01-09T08:35:06;6.43;;;3.72;;
77174;SDS011;66153;53.488;10.244;2023-01-09T08:37:31;8.15;;;3.92;;
77174;SDS011;66153;53.488;10.244;2023-01-09T08:39:56;7.23;;;4.20;;
77174;SDS011;66153;53.488;10.244;2023-01-09T08:42:21;11.73;;;4.67;;
77174;SDS011;66153;53.488;10.244;2023-01-09T08:45:05;9.15;;;4.47;;
77174;SDS011;66153;53.488;10.244;2023-01-09T08:47:49;10.23;;;4.72;;
77174;SDS011;66153;53.488;10.244;2023-01-09T08:50:14;10.67;;;5.10;;
77174;SDS011;66153;53.488;10.244;2023-01-09T08:52:40;9.90;;;5.80;;
77174;SDS011;66153;53.488;10.244;2023-01-09T08:55:05;11.57;;;5.13;;
77174;SDS011;66153;53.488;10.244;2023-01-09T08:57:30;7.93;;;5.22;;
77174;SDS011;66153;53.488;10.244;2023-01-09T08:59:55;7.93;;;4.43;;
77174;SDS011;66153;53.488;10.244;2023-01-09T09:02:21;8.07;;;4.53;;
77174;SDS011;66153;53.488;10.244;2023-01-09T09:04:46;7.20;;;4.27;;
77174;SDS011;66153;53.488;10.244;2023-01-09T09:07:12;7.82;;;4.32;;
77174;SDS011;66153;53.488;10.244;2023-01-09T09:09:37;8.98;;;4.68;;
77174;SDS011;66153;53.488;10.244;2023-01-09T09:12:02;5.97;;;3.50;;
77174;SDS011;66153;53.488;10.244;2023-01-09T09:14:28;6.38;;;3.45;;
77174;SDS011;66153;53.488;10.244;2023-01-09T09:17:12;5.97;;;3.50;;
77174;SDS011;66153;53.488;10.244;2023-01-09T09:19:37;5.68;;;3.38;;
77174;SDS011;66153;53.488;10.244;2023-01-09T09:22:03;5.65;;;3.40;;
77174;SDS011;66153;53.488;10.244;2023-01-09T09:24:28;4.90;;;3.07;;
77174;SDS011;66153;53.488;10.244;2023-01-09T09:26:54;5.77;;;3.47;;
77174;SDS011;66153;53.488;10.244;2023-01-09T09:29:19;5.03;;;3.23;;
77174;SDS011;66153;53.488;10.244;2023-01-09T09:31:44;7.27;;;3.20;;
77174;SDS011;66153;53.488;10.244;2023-01-09T09:34:09;7.63;;;3.83;;
77174;SDS011;66153;53.488;10.244;2023-01-09T09:36:34;7.40;;;3.10;;
77174;SDS011;66153;53.488;10.244;2023-01-09T09:39:00;6.77;;;3.10;;
77174;SDS011;66153;53.488;10.244;2023-01-09T09:41:43;7.60;;;3.80;;
77174;SDS011;66153;53.488;10.244;2023-01-09T09:54:48;8.32;;;3.58;;
77174;SDS011;66153;53.488;10.244;2023-01-09T09:57:16;6.13;;;3.40;;
77174;SDS011;66153;53.488;10.244;2023-01-09T09:59:41;7.55;;;3.40;;
77174;SDS011;66153;53.488;10.244;2023-01-09T10:02:20;8.18;;;3.88;;
77174;SDS011;66153;53.488;10.244;2023-01-09T10:04:49;7.40;;;3.70;;
77174;SDS011;66153;53.488;10.244;2023-01-09T10:07:38;10.65;;;4.00;;
77174;SDS011;66153;53.488;10.244;2023-01-09T10:12:34;8.15;;;3.75;;
77174;SDS011;66153;53.488;10.244;2023-01-09T10:15:05;10.07;;;4.38;;
77174;SDS011;66153;53.488;10.244;2023-01-09T10:23:22;6.43;;;2.90;;
77174;SDS011;66153;53.488;10.244;2023-01-09T10:36:24;9.73;;;3.37;;
77174;SDS011;66153;53.488;10.244;2023-01-09T10:38:54;7.03;;;3.40;;
77174;SDS011;66153;53.488;10.244;2023-01-09T10:41:27;8.00;;;3.67;;
77174;SDS011;66153;53.488;10.244;2023-01-09T10:43:56;11.70;;;3.65;;
77174;SDS011;66153;53.488;10.244;2023-01-09T10:48:49;6.43;;;2.60;;
77174;SDS011;66153;53.488;10.244;2023-01-09T10:51:17;6.82;;;2.97;;
77174;SDS011;66153;53.488;10.244;2023-01-09T10:53:50;7.13;;;2.95;;
77174;SDS011;66153;53.488;10.244;2023-01-09T10:56:23;9.90;;;3.35;;
77174;SDS011;66153;53.488;10.244;2023-01-09T10:58:50;9.95;;;3.75;;
77174;SDS011;66153;53.488;10.244;2023-01-09T11:01:18;6.35;;;3.28;;
77174;SDS011;66153;53.488;10.244;2023-01-09T11:03:45;7.90;;;3.50;;
77174;SDS011;66153;53.488;10.244;2023-01-09T11:06:44;6.93;;;2.93;;
77174;SDS011;66153;53.488;10.244;2023-01-09T11:09:01;10.55;;;3.60;;
77174;SDS011;66153;53.488;10.244;2023-01-09T11:11:37;12.13;;;3.40;;
77174;SDS011;66153;53.488;10.244;2023-01-09T11:14:09;8.75;;;3.60;;
77174;SDS011;66153;53.488;10.244;2023-01-09T11:16:37;7.07;;;3.30;;
77174;SDS011;66153;53.488;10.244;2023-01-09T11:19:02;8.53;;;3.33;;
77174;SDS011;66153;53.488;10.244;2023-01-09T11:23:53;10.60;;;4.00;;
77174;SDS011;66153;53.488;10.244;2023-01-09T11:26:26;8.82;;;4.30;;
77174;SDS011;66153;53.488;10.244;2023-01-09T11:29:11;7.25;;;4.03;;
77174;SDS011;66153;53.488;10.244;2023-01-09T11:31:37;8.25;;;4.00;;
77174;SDS011;66153;53.488;10.244;2023-01-09T11:34:03;8.90;;;3.63;;
77174;SDS011;66153;53.488;10.244;2023-01-09T11:36:30;8.88;;;3.80;;
77174;SDS011;66153;53.488;10.244;2023-01-09T11:38:56;8.52;;;3.67;;
77174;SDS011;66153;53.488;10.244;2023-01-09T11:41:23;6.95;;;3.65;;
77174;SDS011;66153;53.488;10.244;2023-01-09T11:43:50;7.88;;;3.70;;
77174;SDS011;66153;53.488;10.244;2023-01-09T11:48:57;8.77;;;3.63;;
77174;SDS011;66153;53.488;10.244;2023-01-09T11:51:24;9.07;;;3.63;;
77174;SDS011;66153;53.488;10.244;2023-01-09T11:53:55;7.05;;;3.53;;
77174;SDS011;66153;53.488;10.244;2023-01-09T11:56:21;9.07;;;4.15;;
77174;SDS011;66153;53.488;10.244;2023-01-09T11:58:47;17.17;;;5.20;;
77174;SDS011;66153;53.488;10.244;2023-01-09T12:06:58;6.32;;;3.20;;
77174;SDS011;66153;53.488;10.244;2023-01-09T12:11:49;5.60;;;3.13;;
77174;SDS011;66153;53.488;10.244;2023-01-09T12:14:25;6.57;;;3.35;;
77174;SDS011;66153;53.488;10.244;2023-01-09T12:17:02;8.80;;;3.72;;
77174;SDS011;66153;53.488;10.244;2023-01-09T12:24:42;9.35;;;4.03;;
77174;SDS011;66153;53.488;10.244;2023-01-09T12:32:40;5.72;;;3.30;;
77174;SDS011;66153;53.488;10.244;2023-01-09T12:35:29;7.53;;;3.35;;
77174;SDS011;66153;53.488;10.244;2023-01-09T12:38:07;6.88;;;3.70;;
77174;SDS011;66153;53.488;10.244;2023-01-09T12:40:48;7.35;;;3.80;;
77174;SDS011;66153;53.488;10.244;2023-01-09T12:45:58;8.23;;;3.83;;
77174;SDS011;66153;53.488;10.244;2023-01-09T12:53:21;6.90;;;3.63;;
77174;SDS011;66153;53.488;10.244;2023-01-09T12:55:50;6.90;;;3.58;;
77174;SDS011;66153;53.488;10.244;2023-01-09T12:58:28;7.95;;;3.83;;
77174;SDS011;66153;53.488;10.244;2023-01-09T13:00:55;7.47;;;3.50;;
77174;SDS011;66153;53.488;10.244;2023-01-09T13:03:27;7.78;;;3.92;;
77174;SDS011;66153;53.488;10.244;2023-01-09T13:05:55;8.93;;;3.95;;
77174;SDS011;66153;53.488;10.244;2023-01-09T13:10:56;7.07;;;4.15;;
77174;SDS011;66153;53.488;10.244;2023-01-09T13:13:26;6.80;;;3.85;;
77174;SDS011;66153;53.488;10.244;2023-01-09T13:15:55;6.78;;;3.92;;
77174;SDS011;66153;53.488;10.244;2023-01-09T13:18:26;9.43;;;4.20;;
77174;SDS011;66153;53.488;10.244;2023-01-09T13:20:54;7.13;;;3.85;;
77174;SDS011;66153;53.488;10.244;2023-01-09T13:25:48;7.23;;;3.70;;
77174;SDS011;66153;53.488;10.244;2023-01-09T13:28:16;9.52;;;4.15;;
77174;SDS011;66153;53.488;10.244;2023-01-09T13:33:11;10.27;;;4.10;;
77174;SDS011;66153;53.488;10.244;2023-01-09T13:35:54;7.90;;;4.43;;
77174;SDS011;66153;53.488;10.244;2023-01-09T13:38:24;8.10;;;3.95;;
77174;SDS011;66153;53.488;10.244;2023-01-09T13:43:54;10.82;;;4.60;;
77174;SDS011;66153;53.488;10.244;2023-01-09T13:46:21;9.85;;;4.53;;
77174;SDS011;66153;53.488;10.244;2023-01-09T13:48:46;7.43;;;4.22;;
77174;SDS011;66153;53.488;10.244;2023-01-09T13:53:55;9.13;;;4.55;;
77174;SDS011;66153;53.488;10.244;2023-01-09T13:56:20;6.00;;;3.83;;
77174;SDS011;66153;53.488;10.244;2023-01-09T13:58:55;9.93;;;5.20;;
77174;SDS011;66153;53.488;10.244;2023-01-09T14:06:41;10.32;;;4.57;;
77174;SDS011;66153;53.488;10.244;2023-01-09T14:09:19;8.32;;;4.35;;
77174;SDS011;66153;53.488;10.244;2023-01-09T14:11:44;7.10;;;3.97;;
77174;SDS011;66153;53.488;10.244;2023-01-09T14:14:17;8.02;;;4.78;;
77174;SDS011;66153;53.488;10.244;2023-01-09T14:16:45;9.95;;;4.30;;
77174;SDS011;66153;53.488;10.244;2023-01-09T14:21:46;10.70;;;4.55;;
77174;SDS011;66153;53.488;10.244;2023-01-09T14:24:17;8.13;;;4.43;;
77174;SDS011;66153;53.488;10.244;2023-01-09T14:26:45;10.70;;;4.53;;
77174;SDS011;66153;53.488;10.244;2023-01-09T14:34:38;8.27;;;4.20;;
77174;SDS011;66153;53.488;10.244;2023-01-09T14:37:04;11.13;;;4.55;;
77174;SDS011;66153;53.488;10.244;2023-01-09T14:39:34;7.65;;;4.28;;
77174;SDS011;66153;53.488;10.244;2023-01-09T14:42:00;9.95;;;4.55;;
77174;SDS011;66153;53.488;10.244;2023-01-09T14:44:49;8.27;;;4.18;;
77174;SDS011;66153;53.488;10.244;2023-01-09T14:49:44;7.00;;;4.00;;
77174;SDS011;66153;53.488;10.244;2023-01-09T14:52:14;9.50;;;4.50;;
77174;SDS011;66153;53.488;10.244;2023-01-09T14:54:42;12.80;;;5.43;;
77174;SDS011;66153;53.488;10.244;2023-01-09T14:57:30;11.50;;;5.13;;
77174;SDS011;66153;53.488;10.244;2023-01-09T14:59:56;13.13;;;4.88;;
77174;SDS011;66153;53.488;10.244;2023-01-09T15:02:21;8.95;;;4.00;;
77174;SDS011;66153;53.488;10.244;2023-01-09T15:04:47;9.13;;;4.15;;
77174;SDS011;66153;53.488;10.244;2023-01-09T15:07:18;7.00;;;4.03;;
77174;SDS011;66153;53.488;10.244;2023-01-09T15:09:44;6.88;;;3.67;;
77174;SDS011;66153;53.488;10.244;2023-01-09T15:12:14;8.35;;;4.50;;
77174;SDS011;66153;53.488;10.244;2023-01-09T15:14:42;11.27;;;4.53;;
77174;SDS011;66153;53.488;10.244;2023-01-09T15:17:19;7.13;;;4.00;;
77174;SDS011;66153;53.488;10.244;2023-01-09T15:19:46;7.25;;;4.22;;
77174;SDS011;66153;53.488;10.244;2023-01-09T15:24:49;10.10;;;4.53;;
77174;SDS011;66153;53.488;10.244;2023-01-09T15:27:14;9.97;;;4.93;;
77174;SDS011;66153;53.488;10.244;2023-01-09T15:29:39;7.80;;;3.90;;
77174;SDS011;66153;53.488;10.244;2023-01-09T15:32:10;9.13;;;4.70;;
77174;SDS011;66153;53.488;10.244;2023-01-09T15:34:37;7.70;;;3.88;;
77174;SDS011;66153;53.488;10.244;2023-01-09T15:37:03;9.23;;;4.00;;
77174;SDS011;66153;53.488;10.244;2023-01-09T15:39:33;8.07;;;4.07;;
77174;SDS011;66153;53.488;10.244;2023-01-09T15:42:00;7.88;;;3.80;;
77174;SDS011;66153;53.488;10.244;2023-01-09T15:44:44;7.55;;;3.30;;
77174;SDS011;66153;53.488;10.244;2023-01-09T15:47:13;5.18;;;3.00;;
77174;SDS011;66153;53.488;10.244;2023-01-09T15:49:38;5.72;;;2.60;;
77174;SDS011;66153;53.488;10.244;2023-01-09T15:52:04;4.25;;;2.17;;
77174;SDS011;66153;53.488;10.244;2023-01-09T15:57:20;5.10;;;2.33;;
77174;SDS011;66153;53.488;10.244;2023-01-09T15:59:45;6.85;;;2.60;;
77174;SDS011;66153;53.488;10.244;2023-01-09T16:02:10;4.33;;;2.20;;
77174;SDS011;66153;53.488;10.244;2023-01-09T16:04:56;5.90;;;2.33;;
77174;SDS011;66153;53.488;10.244;2023-01-09T16:07:21;3.97;;;2.40;;
77174;SDS011;66153;53.488;10.244;2023-01-09T16:09:47;6.15;;;2.97;;
77174;SDS011;66153;53.488;10.244;2023-01-09T16:12:16;5.88;;;2.75;;
77174;SDS011;66153;53.488;10.244;2023-01-09T16:14:42;6.03;;;3.05;;
77174;SDS011;66153;53.488;10.244;2023-01-09T16:17:15;5.18;;;2.70;;
77174;SDS011;66153;53.488;10.244;2023-01-09T16:19:45;4.63;;;2.50;;
77174;SDS011;66153;53.488;10.244;2023-01-09T16:22:16;9.07;;;4.60;;
77174;SDS011;66153;53.488;10.244;2023-01-09T16:24:43;7.40;;;4.30;;
77174;SDS011;66153;53.488;10.244;2023-01-09T16:27:17;8.97;;;4.90;;
77174;SDS011;66153;53.488;10.244;2023-01-09T16:29:47;6.90;;;3.75;;
77174;SDS011;66153;53.488;10.244;2023-01-09T16:32:19;4.95;;;3.28;;
77174;SDS011;66153;53.488;10.244;2023-01-09T16:34:45;6.10;;;3.75;;
77174;SDS011;66153;53.488;10.244;2023-01-09T16:37:12;5.40;;;3.78;;
77174;SDS011;66153;53.488;10.244;2023-01-09T16:39:38;5.93;;;4.07;;
77174;SDS011;66153;53.488;10.244;2023-01-09T16:42:06;6.47;;;3.73;;
77174;SDS011;66153;53.488;10.244;2023-01-09T16:44:51;4.65;;;3.13;;